Time;durP1;ratioP1;P1;durP2;ratioP2;P2;SDS_P1;SDS_P2;PMS_P1;PMS_P2;Temp;Humidity;BMP_temperature;BMP_pressure;BME280_temperature;BME280_humidity;BME280_pressure;Samples;Min_cycle;Max_cycle;Signal;HPM_P1;HPM_P2
2023/03/22 00:01:19;;;;;;;4.40;2.20;;;12.30;99.00;;;;;;4980867;28;20022;-75
2023/03/22 00:03:46;;;;;;;6.32;2.25;;;12.30;99.00;;;;;;4983278;28;20149;-76
2023/03/22 00:06:12;;;;;;;4.97;2.55;;;12.30;98.90;;;;;;4983263;28;20026;-77
2023/03/22 00:08:38;;;;;;;4.75;2.20;;;12.30;98.90;;;;;;4986479;28;20019;-76
2023/03/22 00:11:05;;;;;;;3.80;1.98;;;12.30;98.90;;;;;;4986256;28;20031;-76
2023/03/22 00:13:32;;;;;;;3.50;2.38;;;12.30;98.90;;;;;;4970328;28;20093;-76
2023/03/22 00:15:58;;;;;;;5.03;2.08;;;12.30;99.00;;;;;;4970537;28;20030;-76
2023/03/22 00:18:25;;;;;;;3.88;1.90;;;12.20;99.10;;;;;;4978888;28;20033;-78
2023/03/22 00:20:52;;;;;;;4.22;2.70;;;12.30;99.10;;;;;;4981814;28;20030;-76
2023/03/22 00:23:18;;;;;;;5.32;3.15;;;12.30;99.00;;;;;;4984082;28;20203;-77
2023/03/22 00:25:44;;;;;;;5.95;2.97;;;12.20;99.00;;;;;;4983103;28;20089;-76
2023/03/22 00:28:10;;;;;;;6.80;3.00;;;12.20;99.10;;;;;;4976748;28;20122;-77
2023/03/22 00:30:36;;;;;;;5.60;3.08;;;12.20;99.20;;;;;;4979781;28;20030;-77
2023/03/22 00:33:02;;;;;;;5.40;3.15;;;12.20;99.30;;;;;;4983927;28;20034;-76
2023/03/22 00:35:28;;;;;;;7.18;2.95;;;12.20;99.40;;;;;;4985161;28;20066;-75
2023/03/22 00:37:53;;;;;;;7.35;3.40;;;12.20;99.40;;;;;;4981030;28;20116;-75
2023/03/22 00:40:19;;;;;;;5.45;2.78;;;12.10;99.50;;;;;;4980961;28;20408;-77
2023/03/22 00:42:45;;;;;;;6.55;3.22;;;12.10;99.70;;;;;;4982531;28;20109;-77
2023/03/22 00:45:12;;;;;;;7.97;3.13;;;12.00;99.70;;;;;;4988344;28;20042;-76
2023/03/22 00:47:38;;;;;;;7.40;3.53;;;12.00;99.90;;;;;;4965861;28;20026;-77
2023/03/22 00:50:05;;;;;;;6.85;3.03;;;12.00;99.90;;;;;;4982001;28;20057;-76
2023/03/22 00:52:32;;;;;;;6.15;3.20;;;11.90;99.90;;;;;;4980581;28;20186;-76
2023/03/22 00:54:57;;;;;;;3.85;2.70;;;11.90;99.90;;;;;;4971555;28;20058;-76
2023/03/22 00:57:23;;;;;;;6.28;3.20;;;11.80;99.90;;;;;;4971652;28;20507;-78
2023/03/22 00:59:51;;;;;;;3.92;2.63;;;11.80;99.90;;;;;;4987601;28;20030;-77
2023/03/22 01:02:28;;;;;;;4.85;2.72;;;11.80;99.90;;;;;;4974032;28;20034;-77
2023/03/22 01:04:54;;;;;;;5.32;2.90;;;11.70;99.90;;;;;;4985772;28;20027;-77
2023/03/22 01:07:22;;;;;;;7.03;2.40;;;11.70;99.90;;;;;;4980413;28;20026;-76
2023/03/22 01:09:52;;;;;;;4.75;2.25;;;11.60;99.90;;;;;;4983168;28;20034;-77
2023/03/22 01:12:18;;;;;;;5.13;2.20;;;11.60;99.90;;;;;;4985689;28;20376;-78
2023/03/22 01:14:45;;;;;;;4.13;2.22;;;11.50;99.90;;;;;;4982881;28;20030;-77
2023/03/22 01:17:10;;;;;;;4.25;2.40;;;11.50;99.90;;;;;;4972492;28;20084;-77
2023/03/22 01:19:36;;;;;;;4.32;2.33;;;11.50;99.90;;;;;;4985607;28;20507;-76
2023/03/22 01:22:05;;;;;;;6.30;2.70;;;11.40;99.90;;;;;;4979434;28;20545;-77
2023/03/22 01:24:34;;;;;;;3.97;2.75;;;11.40;99.90;;;;;;4978192;28;20034;-77
2023/03/22 01:27:00;;;;;;;3.70;2.55;;;11.40;99.90;;;;;;4982539;28;20141;-78
2023/03/22 01:29:25;;;;;;;3.78;2.80;;;11.30;99.90;;;;;;4980192;28;20117;-78
2023/03/22 01:31:51;;;;;;;6.45;2.90;;;11.30;99.90;;;;;;4982521;28;20037;-77
2023/03/22 01:34:17;;;;;;;4.88;2.42;;;11.30;99.90;;;;;;4986027;28;20038;-77
2023/03/22 01:36:43;;;;;;;5.43;2.60;;;11.20;99.90;;;;;;4984857;28;20067;-76
2023/03/22 01:39:09;;;;;;;5.07;2.40;;;11.20;99.90;;;;;;4981218;28;20141;-79
2023/03/22 01:41:36;;;;;;;4.45;2.60;;;11.10;99.90;;;;;;4980798;28;20230;-77
2023/03/22 01:44:15;;;;;;;3.65;2.17;;;11.10;99.90;;;;;;4989846;28;20066;-76
2023/03/22 01:46:42;;;;;;;2.47;1.90;;;11.00;99.90;;;;;;4985279;28;20050;-78
2023/03/22 01:49:15;;;;;;;4.65;2.03;;;11.00;99.90;;;;;;4986371;28;20035;-78
2023/03/22 01:51:45;;;;;;;3.60;2.08;;;11.00;99.90;;;;;;4989348;28;20038;-78
2023/03/22 01:54:17;;;;;;;4.28;2.50;;;10.90;99.90;;;;;;4982994;28;20458;-80
2023/03/22 01:56:43;;;;;;;4.70;1.98;;;10.90;99.90;;;;;;4990081;28;20057;-79
2023/03/22 01:59:13;;;;;;;3.90;2.25;;;10.80;99.90;;;;;;4984914;28;20030;-78
2023/03/22 02:01:39;;;;;;;4.03;2.30;;;10.80;99.90;;;;;;4987484;28;20038;-78
2023/03/22 02:04:05;;;;;;;3.90;2.40;;;10.80;99.90;;;;;;4993042;28;20029;-78
2023/03/22 02:06:36;;;;;;;4.78;2.05;;;10.70;99.90;;;;;;4987582;28;20488;-78
2023/03/22 02:09:08;;;;;;;5.20;2.47;;;10.70;99.90;;;;;;4986357;28;20030;-78
2023/03/22 02:11:37;;;;;;;4.05;2.10;;;10.70;99.90;;;;;;4983610;28;20031;-76
2023/03/22 02:14:04;;;;;;;3.30;2.38;;;10.70;99.90;;;;;;4981088;28;20051;-77
2023/03/22 02:16:41;;;;;;;9.35;2.28;;;10.60;99.90;;;;;;4981847;28;20030;-77
2023/03/22 02:19:28;;;;;;;3.72;2.08;;;10.60;99.90;;;;;;4987814;28;20231;-78
2023/03/22 02:22:15;;;;;;;5.07;2.00;;;10.60;99.90;;;;;;4984984;28;20026;-77
2023/03/22 02:24:54;;;;;;;3.17;2.00;;;10.50;99.90;;;;;;4981303;28;20118;-75
2023/03/22 02:27:50;;;;;;;5.05;1.95;;;10.50;99.90;;;;;;4976457;28;20037;-77
2023/03/22 02:30:44;;;;;;;5.20;1.70;;;10.50;99.90;;;;;;4981399;28;20109;-77
2023/03/22 02:33:28;;;;;;;6.53;2.65;;;10.40;99.90;;;;;;4983018;28;20023;-76
2023/03/22 02:36:18;;;;;;;3.92;1.50;;;10.40;99.90;;;;;;4966205;28;20480;-76
2023/03/22 02:39:08;;;;;;;4.43;2.03;;;10.40;99.90;;;;;;4979243;28;20438;-76
2023/03/22 02:41:39;;;;;;;3.08;1.90;;;10.30;99.90;;;;;;4981288;28;20090;-76
2023/03/22 02:44:09;;;;;;;3.50;2.00;;;10.30;99.90;;;;;;4985222;28;20030;-76
2023/03/22 02:46:53;;;;;;;4.40;1.52;;;10.30;99.90;;;;;;4968109;28;20039;-76
2023/03/22 02:49:27;;;;;;;;;;;10.20;99.90;;;;;;4980914;28;20018;-76
2023/03/22 02:52:00;;;;;;;5.70;1.77;;;10.20;99.90;;;;;;4981207;28;19972;-76
2023/03/22 02:54:34;;;;;;;6.03;1.50;;;10.10;99.90;;;;;;4966571;28;20026;-77
2023/03/22 02:57:08;;;;;;;5.80;2.55;;;10.10;99.90;;;;;;4970150;28;20038;-77
2023/03/22 02:59:37;;;;;;;4.10;2.30;;;10.10;99.90;;;;;;4986406;28;20043;-77
2023/03/22 03:02:04;;;;;;;4.18;2.10;;;10.00;99.90;;;;;;4988767;28;20031;-77
2023/03/22 03:04:35;;;;;;;4.70;1.70;;;10.00;99.90;;;;;;4983551;28;20459;-77
2023/03/22 03:07:08;;;;;;;4.80;1.55;;;10.00;99.90;;;;;;4969611;28;20410;-77
2023/03/22 03:09:35;;;;;;;3.42;1.50;;;9.90;99.90;;;;;;4984015;28;20110;-78
2023/03/22 03:12:01;;;;;;;2.65;1.52;;;9.90;99.90;;;;;;4981582;28;20086;-77
2023/03/22 03:14:31;;;;;;;4.72;1.80;;;9.90;99.90;;;;;;4983843;28;20042;-76
2023/03/22 03:17:17;;;;;;;2.38;1.30;;;9.90;99.90;;;;;;4984335;28;20034;-78
2023/03/22 03:20:08;;;;;;;4.50;1.35;;;9.80;99.90;;;;;;4985276;28;20030;-78
2023/03/22 03:22:42;;;;;;;6.07;1.52;;;9.80;99.90;;;;;;4985479;28;20057;-77
2023/03/22 03:25:21;;;;;;;2.85;1.90;;;9.80;99.90;;;;;;4978731;28;20403;-78
2023/03/22 03:27:56;;;;;;;6.18;2.05;;;9.80;99.90;;;;;;4986651;28;20023;-77
2023/03/22 03:30:31;;;;;;;3.13;1.70;;;9.80;99.90;;;;;;4984188;28;20035;-78
2023/03/22 03:33:03;;;;;;;4.03;2.00;;;9.70;99.90;;;;;;4991009;28;20041;-78
2023/03/22 03:35:37;;;;;;;3.33;1.70;;;9.70;99.90;;;;;;4986231;28;20030;-78
2023/03/22 03:38:17;;;;;;;6.53;1.85;;;9.70;99.90;;;;;;4985371;28;20037;-79
2023/03/22 03:41:00;;;;;;;3.60;1.83;;;9.70;99.90;;;;;;4983596;28;20073;-78
2023/03/22 03:43:26;;;;;;;4.78;2.08;;;9.60;99.90;;;;;;4967920;28;20657;-75
2023/03/22 03:45:54;;;;;;;7.13;2.00;;;9.60;99.90;;;;;;4983867;28;20046;-75
2023/03/22 03:48:23;;;;;;;2.83;1.67;;;9.50;99.90;;;;;;4968233;28;20088;-74
2023/03/22 03:50:52;;;;;;;2.60;1.60;;;9.50;99.90;;;;;;4976973;28;20023;-75
2023/03/22 03:53:17;;;;;;;4.03;1.85;;;9.40;99.90;;;;;;4999817;23;20478;-77
2023/03/22 03:55:43;;;;;;;4.45;1.80;;;9.40;99.90;;;;;;4981949;28;20023;-75
2023/03/22 03:58:09;;;;;;;3.85;2.00;;;9.40;99.90;;;;;;4970237;28;20042;-76
2023/03/22 04:00:36;;;;;;;4.63;2.00;;;9.40;99.90;;;;;;4984033;28;20050;-75
2023/03/22 04:03:02;;;;;;;3.15;2.03;;;9.40;99.90;;;;;;4987183;28;20046;-77
2023/03/22 04:05:28;;;;;;;3.25;1.95;;;9.30;99.90;;;;;;4978385;28;20458;-77
2023/03/22 04:07:54;;;;;;;3.10;2.08;;;9.30;99.90;;;;;;4981264;28;20030;-76
2023/03/22 04:10:20;;;;;;;4.90;1.98;;;9.30;99.90;;;;;;4977090;28;20022;-74
2023/03/22 04:12:45;;;;;;;3.10;1.83;;;9.30;99.90;;;;;;4978668;28;20030;-77
2023/03/22 04:15:11;;;;;;;4.20;2.22;;;9.30;99.90;;;;;;4980360;28;20029;-77
2023/03/22 04:17:38;;;;;;;4.53;1.80;;;9.20;99.90;;;;;;4975420;28;20057;-76
2023/03/22 04:20:05;;;;;;;5.30;2.30;;;9.20;99.90;;;;;;4981748;28;20447;-75
2023/03/22 04:22:37;;;;;;;3.40;2.22;;;9.10;99.90;;;;;;4964093;28;20449;-76
2023/03/22 04:25:03;;;;;;;4.43;2.30;;;9.10;99.90;;;;;;4975652;28;20439;-75
2023/03/22 04:27:29;;;;;;;3.53;1.90;;;9.00;99.90;;;;;;4975488;28;20117;-74
2023/03/22 04:29:55;;;;;;;4.50;2.05;;;9.00;99.90;;;;;;4977422;28;20122;-75
2023/03/22 04:32:24;;;;;;;4.53;2.20;;;9.00;99.90;;;;;;4974802;28;20033;-75
2023/03/22 04:34:51;;;;;;;5.03;2.20;;;9.00;99.90;;;;;;4967453;28;20058;-75
2023/03/22 04:37:18;;;;;;;3.75;2.25;;;8.90;99.90;;;;;;4980209;28;20491;-76
2023/03/22 04:39:44;;;;;;;4.78;2.08;;;8.90;99.90;;;;;;4978167;28;20038;-76
2023/03/22 04:42:10;;;;;;;3.90;1.88;;;8.80;99.90;;;;;;4959624;28;20027;-77
2023/03/22 04:44:36;;;;;;;4.50;2.30;;;8.80;99.90;;;;;;4979931;28;20077;-76
2023/03/22 04:47:02;;;;;;;4.88;2.17;;;8.80;99.90;;;;;;4978862;28;20026;-73
2023/03/22 04:49:28;;;;;;;3.92;2.20;;;8.80;99.90;;;;;;4976525;28;20498;-76
2023/03/22 04:51:57;;;;;;;4.82;2.40;;;8.80;99.90;;;;;;4981473;28;20105;-77
2023/03/22 04:54:23;;;;;;;3.63;2.40;;;8.80;99.90;;;;;;4977522;28;20030;-74
2023/03/22 04:56:49;;;;;;;4.70;2.20;;;8.70;99.90;;;;;;4984235;28;20035;-76
2023/03/22 04:59:18;;;;;;;4.18;2.05;;;8.70;99.90;;;;;;4982507;28;20480;-76
2023/03/22 05:01:48;;;;;;;4.40;1.95;;;8.70;99.90;;;;;;4977503;28;20035;-75
2023/03/22 05:04:14;;;;;;;3.85;2.10;;;8.70;99.90;;;;;;4977911;28;20047;-76
2023/03/22 05:06:40;;;;;;;5.78;2.20;;;8.60;99.90;;;;;;4973079;28;20023;-77
2023/03/22 05:09:06;;;;;;;4.47;2.13;;;8.60;99.90;;;;;;4980456;28;20124;-74
2023/03/22 05:11:32;;;;;;;5.28;2.25;;;8.60;99.90;;;;;;4980901;28;20035;-77
2023/03/22 05:13:58;;;;;;;5.80;2.45;;;8.60;99.90;;;;;;4962539;28;20034;-77
2023/03/22 05:16:24;;;;;;;4.03;2.50;;;8.50;99.90;;;;;;4981873;28;20390;-77
2023/03/22 05:18:53;;;;;;;6.53;2.75;;;8.50;99.90;;;;;;4978835;28;20041;-77
2023/03/22 05:21:27;;;;;;;5.70;2.60;;;8.40;99.90;;;;;;4978990;28;20034;-75
2023/03/22 05:23:56;;;;;;;;;;;8.40;99.90;;;;;;4979665;28;20293;-77
2023/03/22 05:26:25;;;;;;;3.92;2.28;;;8.40;99.90;;;;;;4976320;28;20351;-77
2023/03/22 05:28:54;;;;;;;8.38;2.50;;;8.30;99.90;;;;;;4981422;28;20023;-77
2023/03/22 05:31:21;;;;;;;5.10;2.10;;;8.30;99.90;;;;;;4981855;28;20391;-77
2023/03/22 05:33:49;;;;;;;4.85;2.83;;;8.30;99.90;;;;;;4974280;28;20459;-77
2023/03/22 05:36:16;;;;;;;4.30;2.28;;;8.20;99.90;;;;;;4976082;28;20026;-76
2023/03/22 05:38:43;;;;;;;5.93;2.30;;;8.20;99.90;;;;;;4977039;28;20466;-77
2023/03/22 05:41:09;;;;;;;5.82;2.10;;;8.20;99.90;;;;;;4972217;28;20534;-77
2023/03/22 05:43:35;;;;;;;6.18;2.20;;;8.20;99.90;;;;;;4976254;28;20559;-77
2023/03/22 05:46:05;;;;;;;3.30;1.67;;;8.30;99.90;;;;;;4975466;28;20109;-76
2023/03/22 05:48:30;;;;;;;5.60;2.65;;;8.20;99.90;;;;;;4965516;28;20335;-77
2023/03/22 05:50:56;;;;;;;5.13;2.35;;;8.20;99.90;;;;;;4964725;28;20031;-76
2023/03/22 05:53:22;;;;;;;4.95;2.65;;;8.20;99.90;;;;;;4974155;28;20446;-76
2023/03/22 05:55:47;;;;;;;4.22;2.47;;;8.20;99.90;;;;;;4975326;28;20031;-77
2023/03/22 05:58:17;;;;;;;3.97;2.22;;;8.30;99.90;;;;;;4975545;28;20042;-75
2023/03/22 06:00:44;;;;;;;6.25;2.50;;;8.30;99.90;;;;;;4973894;28;20018;-76
2023/03/22 06:03:10;;;;;;;4.60;2.67;;;8.30;99.90;;;;;;4978079;28;20022;-76
2023/03/22 06:05:36;;;;;;;3.78;2.00;;;8.40;99.90;;;;;;4967585;28;20160;-78
2023/03/22 06:08:02;;;;;;;5.45;2.58;;;8.40;99.90;;;;;;4974958;28;20644;-78
2023/03/22 06:10:28;;;;;;;6.10;2.08;;;8.40;99.90;;;;;;4974713;28;20152;-77
2023/03/22 06:12:54;;;;;;;7.40;2.47;;;8.50;99.90;;;;;;4957791;28;20038;-77
2023/03/22 06:15:19;;;;;;;7.38;2.90;;;8.50;99.90;;;;;;4976513;28;20023;-77
2023/03/22 06:17:46;;;;;;;4.18;2.40;;;8.50;99.90;;;;;;4976183;28;20026;-76
2023/03/22 06:20:13;;;;;;;5.75;2.20;;;8.60;99.90;;;;;;4967799;28;20078;-78
2023/03/22 06:22:39;;;;;;;4.38;2.40;;;8.60;99.90;;;;;;4977123;28;20018;-77
2023/03/22 06:25:06;;;;;;;8.00;2.55;;;8.70;99.90;;;;;;4983059;28;20038;-77
2023/03/22 06:27:32;;;;;;;7.70;2.35;;;8.70;99.90;;;;;;4975057;28;20026;-77
2023/03/22 06:29:58;;;;;;;6.32;2.45;;;8.70;99.90;;;;;;4965664;28;20031;-77
2023/03/22 06:32:25;;;;;;;6.97;2.33;;;8.80;99.90;;;;;;4977872;28;20726;-77
2023/03/22 06:34:51;;;;;;;3.95;2.17;;;8.90;99.90;;;;;;4976130;28;20031;-76
2023/03/22 06:37:18;;;;;;;6.72;2.25;;;9.00;99.90;;;;;;4977641;28;20035;-77
2023/03/22 06:39:43;;;;;;;5.18;2.75;;;9.10;99.90;;;;;;4981410;28;20027;-77
2023/03/22 06:42:09;;;;;;;4.55;2.10;;;9.10;99.90;;;;;;4957064;28;20511;-76
2023/03/22 06:44:35;;;;;;;8.00;3.15;;;9.20;99.90;;;;;;4965721;28;20510;-77
2023/03/22 06:47:02;;;;;;;5.78;2.25;;;9.30;99.90;;;;;;4975223;28;20106;-78
2023/03/22 06:49:27;;;;;;;4.97;2.78;;;9.40;99.90;;;;;;4979745;28;20117;-77
2023/03/22 06:51:53;;;;;;;4.45;2.17;;;9.40;99.90;;;;;;4981626;28;20114;-77
2023/03/22 06:54:19;;;;;;;9.35;4.25;;;9.50;99.90;;;;;;4978453;28;20384;-76
2023/03/22 06:56:45;;;;;;;10.32;4.78;;;9.60;99.90;;;;;;4979987;28;20113;-75
2023/03/22 06:59:11;;;;;;;10.90;4.57;;;9.70;99.90;;;;;;4964965;28;20031;-77
2023/03/22 07:01:36;;;;;;;12.57;4.18;;;9.70;99.90;;;;;;4980803;28;20027;-77
2023/03/22 07:04:02;;;;;;;4.93;3.30;;;9.70;99.90;;;;;;4974415;28;20058;-77
2023/03/22 07:06:29;;;;;;;7.00;3.67;;;9.60;99.90;;;;;;4978195;28;20031;-75
2023/03/22 07:08:55;;;;;;;7.63;3.92;;;9.60;99.90;;;;;;4980285;28;20354;-76
2023/03/22 07:11:20;;;;;;;8.85;4.28;;;9.50;99.90;;;;;;4980114;28;20042;-76
2023/03/22 07:13:46;;;;;;;8.05;3.70;;;9.60;99.90;;;;;;4967560;28;20038;-77
2023/03/22 07:16:12;;;;;;;6.53;3.90;;;9.60;99.90;;;;;;4979927;28;20046;-77
2023/03/22 07:18:37;;;;;;;8.38;3.15;;;9.60;99.90;;;;;;4977285;28;20042;-75
2023/03/22 07:21:03;;;;;;;5.40;2.70;;;9.70;99.90;;;;;;4980358;28;20051;-76
2023/03/22 07:23:29;;;;;;;7.15;2.70;;;9.70;99.90;;;;;;4980537;28;20381;-77
2023/03/22 07:25:55;;;;;;;3.47;2.30;;;9.80;99.90;;;;;;4976580;28;20018;-76
2023/03/22 07:28:21;;;;;;;7.82;4.88;;;9.90;99.90;;;;;;4978921;28;20545;-75
2023/03/22 07:30:47;;;;;;;9.65;4.65;;;9.90;99.90;;;;;;4970248;28;20034;-77
2023/03/22 07:33:13;;;;;;;13.93;3.33;;;10.00;99.90;;;;;;4978004;28;20049;-77
2023/03/22 07:35:38;;;;;;;5.50;2.80;;;10.10;99.90;;;;;;4976007;28;20026;-75
2023/03/22 07:38:05;;;;;;;4.68;2.78;;;10.10;99.90;;;;;;4978286;28;20034;-76
2023/03/22 07:40:31;;;;;;;6.60;3.30;;;10.30;99.90;;;;;;4979485;28;20113;-77
2023/03/22 07:42:57;;;;;;;8.60;4.93;;;10.30;99.90;;;;;;4977319;28;21511;-76
2023/03/22 07:45:24;;;;;;;7.35;3.55;;;10.40;99.90;;;;;;4978128;28;20014;-76
2023/03/22 07:47:50;;;;;;;6.90;4.55;;;10.40;99.90;;;;;;4976384;28;20049;-76
2023/03/22 07:50:16;;;;;;;7.95;3.80;;;10.50;99.90;;;;;;4972006;28;20039;-76
2023/03/22 07:52:43;;;;;;;4.85;3.65;;;10.50;99.90;;;;;;4980038;28;20123;-75
2023/03/22 07:55:11;;;;;;;5.97;3.28;;;10.60;99.90;;;;;;4977051;28;20106;-74
2023/03/22 07:57:37;;;;;;;6.68;3.38;;;10.60;99.90;;;;;;4978328;28;20030;-76
2023/03/22 08:00:05;;;;;;;8.82;3.00;;;10.60;99.90;;;;;;4980638;28;20030;-76
2023/03/22 08:02:31;;;;;;;6.88;2.92;;;10.70;99.90;;;;;;4976177;28;20101;-76
2023/03/22 08:04:56;;;;;;;8.13;3.85;;;10.80;99.90;;;;;;4980265;28;20062;-76
2023/03/22 08:07:24;;;;;;;9.40;3.70;;;10.80;99.90;;;;;;4979438;28;20089;-78
2023/03/22 08:09:50;;;;;;;8.85;3.72;;;10.90;99.90;;;;;;4977534;28;20118;-77
2023/03/22 08:12:17;;;;;;;5.53;3.15;;;11.00;99.90;;;;;;4979094;28;20057;-75
2023/03/22 08:14:49;;;;;;;6.20;3.58;;;11.10;99.90;;;;;;4968735;28;20034;-75
2023/03/22 08:17:16;;;;;;;9.02;4.13;;;11.20;99.90;;;;;;4964837;28;20387;-76
2023/03/22 08:19:42;;;;;;;8.25;3.58;;;11.20;99.90;;;;;;4974899;28;20371;-75
2023/03/22 08:22:08;;;;;;;5.70;3.20;;;11.30;99.90;;;;;;4972598;28;20030;-74
2023/03/22 08:24:34;;;;;;;7.65;3.80;;;11.40;99.90;;;;;;4966051;28;20034;-77
2023/03/22 08:27:00;;;;;;;7.13;3.22;;;11.50;99.90;;;;;;4980103;28;20031;-77
2023/03/22 08:29:26;;;;;;;8.02;2.92;;;11.50;99.90;;;;;;4979631;28;20022;-77
2023/03/22 08:31:52;;;;;;;8.10;2.88;;;11.60;99.90;;;;;;4981613;28;20062;-79
2023/03/22 08:34:18;;;;;;;8.00;3.17;;;11.70;99.90;;;;;;4978496;28;20049;-75
2023/03/22 08:36:45;;;;;;;4.05;2.80;;;11.80;99.90;;;;;;4981710;28;20164;-74
2023/03/22 08:39:10;;;;;;;4.20;2.90;;;11.90;99.90;;;;;;4980331;28;20049;-72
2023/03/22 08:41:37;;;;;;;5.68;3.03;;;12.00;99.90;;;;;;4978887;28;20030;-78
2023/03/22 08:44:03;;;;;;;9.25;2.08;;;12.10;99.90;;;;;;4982202;28;20038;-77
2023/03/22 08:46:28;;;;;;;5.05;2.22;;;12.20;99.90;;;;;;4969996;28;20407;-77
2023/03/22 08:48:54;;;;;;;4.07;2.08;;;12.40;99.90;;;;;;4979596;28;20034;-78
2023/03/22 08:51:21;;;;;;;6.78;1.98;;;12.50;99.90;;;;;;4982529;28;20349;-78
2023/03/22 08:53:47;;;;;;;2.53;1.30;;;12.60;99.90;;;;;;4982823;28;20034;-76
2023/03/22 08:56:16;;;;;;;4.22;1.42;;;12.70;99.90;;;;;;4977227;28;20037;-78
2023/03/22 08:58:45;;;;;;;5.18;1.90;;;12.90;99.90;;;;;;4984950;28;20027;-80
2023/03/22 09:01:16;;;;;;;2.85;1.70;;;13.00;99.90;;;;;;4966672;28;20456;-74
2023/03/22 09:03:42;;;;;;;5.22;1.08;;;13.10;99.90;;;;;;4970630;28;20022;-77
2023/03/22 09:06:09;;;;;;;2.10;0.82;;;13.20;99.90;;;;;;4981786;28;20019;-76
2023/03/22 09:08:35;;;;;;;2.47;1.33;;;13.40;99.90;;;;;;4979076;28;20121;-75
2023/03/22 09:11:01;;;;;;;1.45;0.80;;;13.50;99.90;;;;;;4977230;28;20105;-74
2023/03/22 09:13:29;;;;;;;1.50;0.70;;;13.60;99.90;;;;;;4963414;28;20062;-75
2023/03/22 09:15:55;;;;;;;2.25;0.60;;;13.80;99.90;;;;;;4974944;28;20462;-74
2023/03/22 09:18:23;;;;;;;3.40;0.90;;;13.90;99.70;;;;;;4967785;28;20030;-73
2023/03/22 09:20:48;;;;;;;0.90;0.63;;;14.00;99.70;;;;;;4966389;28;20030;-75
2023/03/22 09:23:14;;;;;;;1.65;0.68;;;14.20;99.40;;;;;;4977961;28;20145;-75
2023/03/22 09:25:43;;;;;;;4.38;1.20;;;14.20;99.00;;;;;;4978659;28;20033;-75
2023/03/22 09:28:09;;;;;;;4.78;0.85;;;14.40;98.60;;;;;;4972859;28;20503;-75
2023/03/22 09:30:35;;;;;;;0.85;0.55;;;14.40;98.60;;;;;;4978837;28;20542;-76
2023/03/22 09:33:01;;;;;;;1.52;0.75;;;14.50;98.50;;;;;;4978697;28;20033;-75
2023/03/22 09:35:27;;;;;;;2.35;0.80;;;14.60;98.00;;;;;;4977757;28;20027;-76
2023/03/22 09:37:53;;;;;;;0.88;0.40;;;14.60;97.70;;;;;;4981800;28;20085;-78
2023/03/22 09:40:20;;;;;;;0.60;0.50;;;14.70;97.00;;;;;;4987875;28;20027;-77
2023/03/22 09:42:50;;;;;;;2.05;0.40;;;14.90;96.20;;;;;;4973036;28;20118;-76
2023/03/22 09:45:28;;;;;;;0.60;0.50;;;15.00;95.50;;;;;;4984446;28;20027;-78
2023/03/22 09:47:56;;;;;;;1.38;0.70;;;15.20;95.20;;;;;;4984637;28;20026;-77
2023/03/22 09:50:25;;;;;;;1.52;0.98;;;15.20;94.80;;;;;;4986410;28;20038;-79
2023/03/22 09:52:51;;;;;;;1.40;0.85;;;15.20;94.60;;;;;;4984559;28;20033;-79
2023/03/22 09:55:46;;;;;;;1.05;0.55;;;15.30;94.60;;;;;;5006272;23;20030;-77
2023/03/22 09:58:11;;;;;;;;;;;15.30;94.20;;;;;;4996951;28;20034;-77
2023/03/22 10:00:48;;;;;;;1.48;0.70;;;15.50;93.20;;;;;;4983650;28;19910;-77
2023/03/22 10:03:38;;;;;;;0.90;0.60;;;15.50;92.90;;;;;;4987476;28;20459;-77
2023/03/22 10:06:08;;;;;;;1.10;0.50;;;15.60;92.50;;;;;;4939479;28;20039;-77
2023/03/22 10:08:45;;;;;;;1.45;0.70;;;15.70;92.60;;;;;;4979301;28;20504;-77
2023/03/22 10:11:23;;;;;;;1.00;0.57;;;15.80;92.20;;;;;;4980588;28;20061;-77
2023/03/22 10:14:22;;;;;;;1.13;0.80;;;15.80;92.00;;;;;;4992618;28;20029;-77
2023/03/22 10:16:50;;;;;;;1.55;0.60;;;15.90;91.80;;;;;;4993772;28;20033;-78
2023/03/22 10:19:22;;;;;;;1.02;0.50;;;16.00;91.20;;;;;;4990815;28;20026;-78
2023/03/22 10:21:50;;;;;;;2.42;0.55;;;16.10;90.90;;;;;;4989003;28;20030;-77
2023/03/22 10:24:28;;;;;;;1.13;0.60;;;16.20;90.50;;;;;;4986482;28;20434;-77
2023/03/22 10:26:54;;;;;;;1.50;0.60;;;16.30;90.60;;;;;;4995659;28;20101;-78
2023/03/22 10:29:42;;;;;;;0.98;0.50;;;16.40;90.60;;;;;;5017312;28;20019;-78
2023/03/22 10:32:15;;;;;;;6.35;0.60;;;16.40;90.10;;;;;;4996252;28;20105;-78
2023/03/22 10:34:42;;;;;;;0.93;0.65;;;16.50;88.80;;;;;;4997696;28;20045;-78
2023/03/22 10:37:41;;;;;;;0.85;0.50;;;16.50;88.50;;;;;;4993953;28;20065;-78
2023/03/22 10:40:17;;;;;;;1.13;0.73;;;16.50;87.20;;;;;;4986873;28;20696;-77
2023/03/22 10:42:49;;;;;;;1.35;1.00;;;16.50;87.50;;;;;;5012275;28;20084;-78
2023/03/22 10:45:16;;;;;;;1.90;0.75;;;16.60;87.70;;;;;;4996685;28;20048;-81
2023/03/22 10:47:49;;;;;;;2.08;0.80;;;16.60;87.90;;;;;;4986052;28;20061;-80
2023/03/22 10:50:22;;;;;;;1.50;0.67;;;16.60;88.30;;;;;;4984347;28;20041;-80
2023/03/22 10:52:48;;;;;;;;;;;16.60;86.80;;;;;;4993873;28;20368;-80
2023/03/22 10:55:15;;;;;;;2.63;1.10;;;16.60;86.50;;;;;;4992066;28;19921;-80
2023/03/22 10:57:56;;;;;;;1.88;0.80;;;16.60;86.10;;;;;;4993076;28;20071;-80
2023/03/22 11:00:23;;;;;;;1.77;0.73;;;16.70;85.70;;;;;;4997351;28;20046;-80
2023/03/22 11:02:57;;;;;;;2.28;0.70;;;16.80;86.80;;;;;;4999950;28;20031;-80
2023/03/22 11:05:24;;;;;;;;;;;16.80;85.60;;;;;;5003984;28;20082;-79
2023/03/22 11:07:50;;;;;;;1.80;0.70;;;16.90;83.90;;;;;;5007703;28;19928;-79
2023/03/22 11:10:26;;;;;;;1.52;0.80;;;17.00;82.80;;;;;;4991127;28;20097;-81
2023/03/22 11:13:12;;;;;;;1.90;0.82;;;17.10;81.70;;;;;;5012814;28;20030;-80
2023/03/22 11:16:04;;;;;;;4.72;1.08;;;17.20;82.30;;;;;;4990685;28;20654;-80
2023/03/22 11:18:32;;;;;;;0.80;0.80;;;17.30;81.10;;;;;;4989459;28;20050;-81
2023/03/22 11:21:04;;;;;;;1.23;0.70;;;17.40;81.40;;;;;;4999486;28;20030;-80
2023/03/22 11:23:33;;;;;;;1.40;0.75;;;17.40;80.20;;;;;;5009271;28;20041;-80
2023/03/22 11:26:09;;;;;;;1.17;0.57;;;17.40;79.70;;;;;;4995573;28;20018;-80
2023/03/22 11:28:41;;;;;;;2.88;0.85;;;17.50;79.70;;;;;;5012652;28;20034;-79
2023/03/22 11:31:10;;;;;;;1.20;0.77;;;17.50;80.70;;;;;;4993478;28;20069;-80
2023/03/22 11:33:44;;;;;;;4.18;0.60;;;17.50;80.70;;;;;;4990132;28;20023;-79
2023/03/22 11:36:17;;;;;;;3.42;0.70;;;17.50;80.70;;;;;;5002686;28;20027;-79
2023/03/22 11:38:43;;;;;;;;;;;17.60;80.40;;;;;;4990973;28;20137;-79
2023/03/22 11:41:25;;;;;;;2.35;0.93;;;17.60;78.70;;;;;;4994865;28;19957;-79
2023/03/22 11:43:54;;;;;;;1.73;1.05;;;17.60;79.10;;;;;;4996770;28;20468;-80
2023/03/22 11:46:21;;;;;;;1.75;0.70;;;17.70;78.40;;;;;;4991711;28;20102;-80
2023/03/22 11:48:55;;;;;;;6.30;1.30;;;17.80;78.50;;;;;;4994512;28;20031;-80
2023/03/22 11:51:34;;;;;;;2.33;0.68;;;17.80;78.70;;;;;;4991041;28;20034;-80
2023/03/22 11:54:22;;;;;;;1.90;0.68;;;17.90;78.40;;;;;;4997157;28;20037;-79
2023/03/22 11:56:49;;;;;;;3.03;0.80;;;17.90;78.40;;;;;;4992476;28;20456;-79
2023/03/22 11:59:29;;;;;;;1.77;1.10;;;18.00;77.90;;;;;;4993457;28;20031;-79
2023/03/22 12:02:12;;;;;;;2.97;0.98;;;18.00;78.10;;;;;;4989509;28;20062;-81
2023/03/22 12:04:40;;;;;;;2.10;1.08;;;18.10;78.10;;;;;;5000162;28;20037;-80
2023/03/22 12:07:14;;;;;;;2.33;0.80;;;18.00;77.70;;;;;;4992465;28;20153;-81
2023/03/22 12:09:42;;;;;;;;;;;18.10;77.90;;;;;;4980759;28;20026;-80
2023/03/22 12:12:20;;;;;;;2.13;0.80;;;18.10;77.50;;;;;;4991065;28;20403;-80
2023/03/22 12:15:15;;;;;;;0.90;0.60;;;18.00;77.80;;;;;;4990457;28;20027;-79
2023/03/22 12:17:48;;;;;;;1.67;0.52;;;18.00;77.60;;;;;;4986195;28;20053;-80
2023/03/22 12:20:34;;;;;;;0.90;0.70;;;17.90;77.50;;;;;;4996244;28;20033;-81
2023/03/22 12:23:01;;;;;;;2.60;0.80;;;17.90;77.20;;;;;;4996521;28;20034;-79
2023/03/22 12:25:31;;;;;;;4.93;1.08;;;17.80;76.80;;;;;;4986121;28;20102;-81
2023/03/22 12:28:02;;;;;;;2.38;1.05;;;17.80;76.60;;;;;;4990175;28;20849;-81
2023/03/22 12:30:39;;;;;;;1.80;0.88;;;17.70;77.00;;;;;;4990307;28;20045;-80
2023/03/22 12:33:17;;;;;;;1.15;0.70;;;17.70;77.10;;;;;;4997605;28;20159;-78
2023/03/22 12:35:44;;;;;;;5.22;0.75;;;17.80;76.90;;;;;;4988140;28;20045;-79
2023/03/22 12:38:40;;;;;;;1.00;0.55;;;17.80;76.30;;;;;;4989067;28;20065;-79
2023/03/22 12:41:14;;;;;;;1.38;0.93;;;17.80;75.40;;;;;;4989757;28;20029;-80
2023/03/22 12:44:04;;;;;;;0.88;0.50;;;17.80;74.30;;;;;;4995658;28;20022;-81
2023/03/22 12:46:54;;;;;;;0.63;0.50;;;17.80;73.70;;;;;;4986576;28;20035;-80
2023/03/22 12:49:39;;;;;;;2.60;0.50;;;17.80;73.80;;;;;;4993519;28;20054;-80
2023/03/22 12:52:47;;;;;;;0.73;0.43;;;17.90;73.30;;;;;;4989990;28;20096;-80
2023/03/22 12:55:27;;;;;;;1.02;0.60;;;17.90;71.40;;;;;;4937695;29;20122;-79
2023/03/22 12:57:53;;;;;;;1.08;0.63;;;18.00;70.50;;;;;;4985443;28;20034;-81
2023/03/22 13:00:36;;;;;;;1.70;0.70;;;18.00;70.50;;;;;;5004671;28;20125;-81
2023/03/22 13:03:16;;;;;;;0.88;0.60;;;18.20;70.00;;;;;;4994011;28;20264;-81
2023/03/22 13:05:44;;;;;;;1.25;0.65;;;18.20;69.80;;;;;;5000308;28;20027;-81
2023/03/22 13:08:10;;;;;;;2.65;0.68;;;18.30;69.50;;;;;;4986959;28;20037;-80